Pazifik — ZDKS7 — position and weather

sailwx.info

Track history (hours):
 
Tides and Currents Weather Stations Pressure Air Temp Water Temp Dewpoint Dewpoint Depression Visibility Wind Speed Wind Dir Waves Ship Positions

Pazifik

Last reported at 2017-Nov-18 23:23 UTC. Time now 2017-Dec-17 04:14 UTC.
Position N 36°04' E 014°44'.
Warning: this ship's position is 28 days out of date.

Length 205 m; draft 10.9 m.

Type: Ship (hazmat cat A). MMSI: 236111796.

Date/timePositionNaut miles runAvg speedWind from/ knotsBaromVisibWave heightAir tempDewpointWater temp
2017-Nov-18 23:23N 36°04' E 014°44'1 1.0
2017-Nov-18 22:50N 36°04' E 014°43'0 0.9
2017-Nov-18 22:26N 36°03' E 014°43'2 4.1
2017-Nov-18 22:00N 36°02' E 014°42'3 5.3
2017-Nov-18 21:30N 36°00' E 014°39'3 6.1
2017-Nov-18 21:00N 35°59' E 014°36'2 3.6
2017-Nov-18 20:29N 36°00' E 014°34'4 8.2
2017-Nov-18 20:00N 36°03' E 014°31'612.1
2017-Nov-18 19:30N 36°07' E 014°25'713.2
2017-Nov-18 19:00N 36°11' E 014°19'613.1
2017-Nov-18 18:30N 36°15' E 014°13'713.4
2017-Nov-18 18:00N 36°18' E 014°05'713.4
2017-Nov-18 17:30N 36°21' E 013°58'713.3
2017-Nov-18 17:00N 36°24' E 013°50'613.2
2017-Nov-18 16:30N 36°26' E 013°43'  
2017-Nov-15 20:46N 36°00' W 005°15'414.6
2017-Nov-15 20:31N 36°01' W 005°20'5 7.8
2017-Nov-15 19:55N 36°04' W 005°23'0 0.9
2017-Nov-15 19:29N 36°04' W 005°23'1 0.1
2017-Nov-15 06:42N 36°06' W 005°23'0 1.9
2017-Nov-15 06:28N 36°05' W 005°23'0 0.9
2017-Nov-15 06:00N 36°05' W 005°22'2 4.0
2017-Nov-15 05:30N 36°05' W 005°20'4 8.3
2017-Nov-15 05:00N 36°06' W 005°15'4 6.0
2017-Nov-15 04:23N 36°07' W 005°10'1 0.8
2017-Nov-15 03:20N 36°08' W 005°10'2 4.6
2017-Nov-15 02:58N 36°09' W 005°12'2 4.4
2017-Nov-15 02:29N 36°11' W 005°13'2 1.0
2017-Nov-15 00:31N 36°09' W 005°11'0 1.2
2017-Nov-15 00:29N 36°09' W 005°11'1 1.1
2017-Nov-14 23:48N 36°09' W 005°11'0 1.1
2017-Nov-14 23:29N 36°08' W 005°11'0 0.7
2017-Nov-14 22:54N 36°08' W 005°10'4 2.3
2017-Nov-14 21:02N 36°07' W 005°15'0 1.9
2017-Nov-14 21:00N 36°07' W 005°15'0 0.8
2017-Nov-14 20:30N 36°07' W 005°15'1 1.0
2017-Nov-14 19:56N 36°06' W 005°14'1 0.8
2017-Nov-14 18:33N 36°05' W 005°13'0 0.8
2017-Nov-14 18:25N 36°05' W 005°13'0 0.8
2017-Nov-14 18:00N 36°05' W 005°13'0 0.6
2017-Nov-14 17:30N 36°05' W 005°13'3 2.6
2017-Nov-14 16:14N 36°02' W 005°14'2 8.1
2017-Nov-14 16:00N 36°01' W 005°16'5 9.9
2017-Nov-14 15:30N 35°60' W 005°22'510.6
2017-Nov-14 15:01N 35°58' W 005°28'22314.9
2017-Nov-14 00:00N 34°36' W 009°42'33313.9 360 / 141022.0 5.4 18.511.221.0
2017-Nov-13 00:00N 32°24' W 015°48'19114.0 050 / 181023.0 5.4 20.015.822.0
2017-Nov-12 10:20N 31°13' W 019°17'513.9
2017-Nov-12 09:59N 31°11' W 019°22'13613.7
2017-Nov-12 00:00N 30°18' W 021°48'16213.5 090 / 171019.0 5.4 22.019.723.0
2017-Nov-11 12:00N 29°18' W 024°42'43412.1 140 / 121019.2 5.4 23.019.123.0
2017-Nov-10 00:00N 26°36' W 032°18'15713.1 090 / 251019.3 5.4 23.018.325.0
2017-Nov-09 12:00N 25°36' W 035°00'7712.8 050 / 211019.410.8 25.017.025.0
2017-Nov-09 06:00N 25°06' W 036°18'8213.7 090 / 201017.810.8 24.517.326.0
2017-Nov-09 00:00N 24°36' W 037°42'   090 / 211018.0 5.4 23.518.026.0
Track history (hours):
 
Tides and Currents Weather Stations Pressure Air Temp Water Temp Dewpoint Dewpoint Depression Visibility Wind Speed Wind Dir Waves Ship Positions

Pazifik

Last reported at 2017-Nov-18 23:23 UTC. Time now 2017-Dec-17 04:14 UTC.
Position N 36°04' E 014°44'.
Warning: this ship's position is 28 days out of date.

Length 205 m; draft 10.9 m.

Type: Ship (hazmat cat A). MMSI: 236111796.

Date/timePositionNaut miles runAvg speedWind from/ knotsBaromVisibWave heightAir tempDewpointWater temp
2017-Nov-18 23:23N 36°04' E 014°44'1 1.0
2017-Nov-18 22:50N 36°04' E 014°43'0 0.9
2017-Nov-18 22:26N 36°03' E 014°43'2 4.1
2017-Nov-18 22:00N 36°02' E 014°42'3 5.3
2017-Nov-18 21:30N 36°00' E 014°39'3 6.1
2017-Nov-18 21:00N 35°59' E 014°36'2 3.6
2017-Nov-18 20:29N 36°00' E 014°34'4 8.2
2017-Nov-18 20:00N 36°03' E 014°31'612.1
2017-Nov-18 19:30N 36°07' E 014°25'713.2
2017-Nov-18 19:00N 36°11' E 014°19'613.1
2017-Nov-18 18:30N 36°15' E 014°13'713.4
2017-Nov-18 18:00N 36°18' E 014°05'713.4
2017-Nov-18 17:30N 36°21' E 013°58'713.3
2017-Nov-18 17:00N 36°24' E 013°50'613.2
2017-Nov-18 16:30N 36°26' E 013°43'  
2017-Nov-15 20:46N 36°00' W 005°15'414.6
2017-Nov-15 20:31N 36°01' W 005°20'5 7.8
2017-Nov-15 19:55N 36°04' W 005°23'0 0.9
2017-Nov-15 19:29N 36°04' W 005°23'1 0.1
2017-Nov-15 06:42N 36°06' W 005°23'0 1.9
2017-Nov-15 06:28N 36°05' W 005°23'0 0.9
2017-Nov-15 06:00N 36°05' W 005°22'2 4.0
2017-Nov-15 05:30N 36°05' W 005°20'4 8.3
2017-Nov-15 05:00N 36°06' W 005°15'4 6.0
2017-Nov-15 04:23N 36°07' W 005°10'1 0.8
2017-Nov-15 03:20N 36°08' W 005°10'2 4.6
2017-Nov-15 02:58N 36°09' W 005°12'2 4.4
2017-Nov-15 02:29N 36°11' W 005°13'2 1.0
2017-Nov-15 00:31N 36°09' W 005°11'0 1.2
2017-Nov-15 00:29N 36°09' W 005°11'1 1.1
2017-Nov-14 23:48N 36°09' W 005°11'0 1.1
2017-Nov-14 23:29N 36°08' W 005°11'0 0.7
2017-Nov-14 22:54N 36°08' W 005°10'4 2.3
2017-Nov-14 21:02N 36°07' W 005°15'0 1.9
2017-Nov-14 21:00N 36°07' W 005°15'0 0.8
2017-Nov-14 20:30N 36°07' W 005°15'1 1.0
2017-Nov-14 19:56N 36°06' W 005°14'1 0.8
2017-Nov-14 18:33N 36°05' W 005°13'0 0.8
2017-Nov-14 18:25N 36°05' W 005°13'0 0.8
2017-Nov-14 18:00N 36°05' W 005°13'0 0.6
2017-Nov-14 17:30N 36°05' W 005°13'3 2.6
2017-Nov-14 16:14N 36°02' W 005°14'2 8.1
2017-Nov-14 16:00N 36°01' W 005°16'5 9.9
2017-Nov-14 15:30N 35°60' W 005°22'510.6
2017-Nov-14 15:01N 35°58' W 005°28'22314.9
2017-Nov-14 00:00N 34°36' W 009°42'33313.9 360 / 141022.0 5.4 18.511.221.0
2017-Nov-13 00:00N 32°24' W 015°48'19114.0 050 / 181023.0 5.4 20.015.822.0
2017-Nov-12 10:20N 31°13' W 019°17'513.9
2017-Nov-12 09:59N 31°11' W 019°22'13613.7
2017-Nov-12 00:00N 30°18' W 021°48'16213.5 090 / 171019.0 5.4 22.019.723.0
2017-Nov-11 12:00N 29°18' W 024°42'43412.1 140 / 121019.2 5.4 23.019.123.0
2017-Nov-10 00:00N 26°36' W 032°18'15713.1 090 / 251019.3 5.4 23.018.325.0
2017-Nov-09 12:00N 25°36' W 035°00'7712.8 050 / 211019.410.8 25.017.025.0
2017-Nov-09 06:00N 25°06' W 036°18'8213.7 090 / 201017.810.8 24.517.326.0
2017-Nov-09 00:00N 24°36' W 037°42'   090 / 211018.0 5.4 23.518.026.0

Dump ship's entire track history